sensor_id;sensor_type;location;lat;lon;timestamp;P1;durP1;ratioP1;P2;durP2;ratioP2
20629;SDS011;17386;43.846;25.950;2023-02-01T00:00:21;14.40;;;7.05;;
20629;SDS011;17386;43.846;25.950;2023-02-01T00:02:46;14.55;;;6.22;;
20629;SDS011;17386;43.846;25.950;2023-02-01T00:05:12;15.88;;;7.03;;
20629;SDS011;17386;43.846;25.950;2023-02-01T00:07:37;17.10;;;7.57;;
20629;SDS011;17386;43.846;25.950;2023-02-01T00:10:04;16.58;;;7.22;;
20629;SDS011;17386;43.846;25.950;2023-02-01T00:12:31;14.07;;;6.82;;
20629;SDS011;17386;43.846;25.950;2023-02-01T00:14:57;13.60;;;6.38;;
20629;SDS011;17386;43.846;25.950;2023-02-01T00:17:24;13.38;;;5.78;;
20629;SDS011;17386;43.846;25.950;2023-02-01T00:19:51;15.98;;;6.78;;
20629;SDS011;17386;43.846;25.950;2023-02-01T00:22:17;14.27;;;6.63;;
20629;SDS011;17386;43.846;25.950;2023-02-01T00:24:44;12.35;;;6.25;;
20629;SDS011;17386;43.846;25.950;2023-02-01T00:27:11;12.27;;;6.22;;
20629;SDS011;17386;43.846;25.950;2023-02-01T00:29:39;18.10;;;7.93;;
20629;SDS011;17386;43.846;25.950;2023-02-01T00:32:06;13.63;;;6.82;;
20629;SDS011;17386;43.846;25.950;2023-02-01T00:34:32;13.90;;;6.07;;
20629;SDS011;17386;43.846;25.950;2023-02-01T00:36:57;14.73;;;6.50;;
20629;SDS011;17386;43.846;25.950;2023-02-01T00:39:26;13.27;;;6.47;;
20629;SDS011;17386;43.846;25.950;2023-02-01T00:41:53;13.48;;;6.75;;
20629;SDS011;17386;43.846;25.950;2023-02-01T00:44:19;14.60;;;6.50;;
20629;SDS011;17386;43.846;25.950;2023-02-01T00:46:45;16.45;;;5.90;;
20629;SDS011;17386;43.846;25.950;2023-02-01T00:49:10;14.63;;;6.63;;
20629;SDS011;17386;43.846;25.950;2023-02-01T00:51:35;13.15;;;6.13;;
20629;SDS011;17386;43.846;25.950;2023-02-01T00:54:02;11.85;;;6.00;;
20629;SDS011;17386;43.846;25.950;2023-02-01T00:56:28;14.50;;;7.13;;
20629;SDS011;17386;43.846;25.950;2023-02-01T00:58:54;15.18;;;5.72;;
20629;SDS011;17386;43.846;25.950;2023-02-01T01:01:25;16.23;;;6.90;;
20629;SDS011;17386;43.846;25.950;2023-02-01T01:03:54;13.90;;;6.43;;
20629;SDS011;17386;43.846;25.950;2023-02-01T01:06:24;13.43;;;6.25;;
20629;SDS011;17386;43.846;25.950;2023-02-01T01:08:52;17.10;;;7.05;;
20629;SDS011;17386;43.846;25.950;2023-02-01T01:11:20;14.52;;;6.45;;
20629;SDS011;17386;43.846;25.950;2023-02-01T01:13:51;12.63;;;5.55;;
20629;SDS011;17386;43.846;25.950;2023-02-01T01:18:45;12.88;;;4.90;;
20629;SDS011;17386;43.846;25.950;2023-02-01T01:21:13;13.30;;;5.72;;
20629;SDS011;17386;43.846;25.950;2023-02-01T01:23:40;12.68;;;6.18;;
20629;SDS011;17386;43.846;25.950;2023-02-01T01:26:07;14.40;;;6.03;;
20629;SDS011;17386;43.846;25.950;2023-02-01T01:28:35;11.15;;;5.88;;
20629;SDS011;17386;43.846;25.950;2023-02-01T01:31:02;14.85;;;6.80;;
20629;SDS011;17386;43.846;25.950;2023-02-01T01:33:28;16.38;;;8.32;;
20629;SDS011;17386;43.846;25.950;2023-02-01T01:35:53;13.23;;;5.90;;
20629;SDS011;17386;43.846;25.950;2023-02-01T01:38:20;11.77;;;6.05;;
20629;SDS011;17386;43.846;25.950;2023-02-01T01:40:47;10.75;;;5.68;;
20629;SDS011;17386;43.846;25.950;2023-02-01T01:43:17;16.35;;;5.97;;
20629;SDS011;17386;43.846;25.950;2023-02-01T01:45:44;14.63;;;6.35;;
20629;SDS011;17386;43.846;25.950;2023-02-01T01:50:42;16.17;;;6.57;;
20629;SDS011;17386;43.846;25.950;2023-02-01T01:53:13;16.77;;;6.78;;
20629;SDS011;17386;43.846;25.950;2023-02-01T01:55:44;13.07;;;6.07;;
20629;SDS011;17386;43.846;25.950;2023-02-01T01:58:23;12.52;;;6.53;;
20629;SDS011;17386;43.846;25.950;2023-02-01T02:00:53;12.32;;;6.22;;
20629;SDS011;17386;43.846;25.950;2023-02-01T02:03:40;12.55;;;6.22;;
20629;SDS011;17386;43.846;25.950;2023-02-01T02:06:11;14.30;;;6.43;;
20629;SDS011;17386;43.846;25.950;2023-02-01T02:08:42;14.48;;;6.93;;
20629;SDS011;17386;43.846;25.950;2023-02-01T02:11:11;17.33;;;6.57;;
20629;SDS011;17386;43.846;25.950;2023-02-01T02:13:42;14.93;;;7.15;;
20629;SDS011;17386;43.846;25.950;2023-02-01T02:27:21;14.82;;;6.10;;
20629;SDS011;17386;43.846;25.950;2023-02-01T02:36:17;15.90;;;6.50;;
20629;SDS011;17386;43.846;25.950;2023-02-01T02:38:58;15.23;;;7.15;;
20629;SDS011;17386;43.846;25.950;2023-02-01T02:48:04;14.43;;;6.82;;
20629;SDS011;17386;43.846;25.950;2023-02-01T02:50:50;16.23;;;6.90;;
20629;SDS011;17386;43.846;25.950;2023-02-01T02:56:39;16.35;;;6.57;;
20629;SDS011;17386;43.846;25.950;2023-02-01T02:59:26;17.17;;;7.38;;
20629;SDS011;17386;43.846;25.950;2023-02-01T03:02:14;16.67;;;6.82;;
20629;SDS011;17386;43.846;25.950;2023-02-01T03:05:00;15.63;;;6.25;;
20629;SDS011;17386;43.846;25.950;2023-02-01T03:10:13;16.40;;;7.55;;
20629;SDS011;17386;43.846;25.950;2023-02-01T03:12:47;12.48;;;5.75;;
20629;SDS011;17386;43.846;25.950;2023-02-01T03:21:10;18.17;;;6.93;;
20629;SDS011;17386;43.846;25.950;2023-02-01T03:23:41;15.65;;;7.22;;
20629;SDS011;17386;43.846;25.950;2023-02-01T03:26:11;19.63;;;7.68;;
20629;SDS011;17386;43.846;25.950;2023-02-01T03:28:41;14.82;;;6.38;;
20629;SDS011;17386;43.846;25.950;2023-02-01T03:31:11;14.90;;;7.07;;
20629;SDS011;17386;43.846;25.950;2023-02-01T03:33:39;16.27;;;6.57;;
20629;SDS011;17386;43.846;25.950;2023-02-01T03:41:58;14.02;;;5.88;;
20629;SDS011;17386;43.846;25.950;2023-02-01T03:47:17;11.90;;;5.55;;
20629;SDS011;17386;43.846;25.950;2023-02-01T03:49:48;11.68;;;5.50;;
20629;SDS011;17386;43.846;25.950;2023-02-01T03:52:18;13.45;;;5.97;;
20629;SDS011;17386;43.846;25.950;2023-02-01T03:54:48;13.95;;;6.38;;
20629;SDS011;17386;43.846;25.950;2023-02-01T03:57:17;12.32;;;5.88;;
20629;SDS011;17386;43.846;25.950;2023-02-01T03:59:50;14.68;;;6.63;;
20629;SDS011;17386;43.846;25.950;2023-02-01T04:02:15;12.40;;;5.97;;
20629;SDS011;17386;43.846;25.950;2023-02-01T04:04:41;14.63;;;4.75;;
20629;SDS011;17386;43.846;25.950;2023-02-01T04:07:06;10.85;;;5.10;;
20629;SDS011;17386;43.846;25.950;2023-02-01T04:09:33;11.32;;;5.32;;
20629;SDS011;17386;43.846;25.950;2023-02-01T04:11:58;11.55;;;5.20;;
20629;SDS011;17386;43.846;25.950;2023-02-01T04:14:25;10.02;;;5.10;;
20629;SDS011;17386;43.846;25.950;2023-02-01T04:16:51;11.63;;;5.22;;
20629;SDS011;17386;43.846;25.950;2023-02-01T04:19:19;9.77;;;5.22;;
20629;SDS011;17386;43.846;25.950;2023-02-01T04:21:45;10.05;;;4.78;;
20629;SDS011;17386;43.846;25.950;2023-02-01T04:24:12;9.60;;;4.55;;
20629;SDS011;17386;43.846;25.950;2023-02-01T04:26:37;12.55;;;4.88;;
20629;SDS011;17386;43.846;25.950;2023-02-01T04:29:03;9.18;;;4.93;;
20629;SDS011;17386;43.846;25.950;2023-02-01T04:31:28;13.00;;;4.55;;
20629;SDS011;17386;43.846;25.950;2023-02-01T04:33:54;10.70;;;4.22;;
20629;SDS011;17386;43.846;25.950;2023-02-01T04:36:22;12.27;;;4.25;;
20629;SDS011;17386;43.846;25.950;2023-02-01T04:38:50;10.82;;;4.28;;
20629;SDS011;17386;43.846;25.950;2023-02-01T04:41:17;9.65;;;4.40;;
20629;SDS011;17386;43.846;25.950;2023-02-01T04:43:48;10.95;;;4.82;;
20629;SDS011;17386;43.846;25.950;2023-02-01T04:46:15;12.00;;;4.70;;
20629;SDS011;17386;43.846;25.950;2023-02-01T04:48:40;12.35;;;5.25;;
20629;SDS011;17386;43.846;25.950;2023-02-01T04:51:07;13.75;;;5.43;;
20629;SDS011;17386;43.846;25.950;2023-02-01T04:53:34;9.35;;;5.03;;
20629;SDS011;17386;43.846;25.950;2023-02-01T04:55:59;10.60;;;4.65;;
20629;SDS011;17386;43.846;25.950;2023-02-01T04:58:26;13.10;;;4.30;;
20629;SDS011;17386;43.846;25.950;2023-02-01T05:00:52;9.57;;;4.75;;
20629;SDS011;17386;43.846;25.950;2023-02-01T05:03:18;11.60;;;4.90;;
20629;SDS011;17386;43.846;25.950;2023-02-01T05:05:44;9.90;;;4.90;;
20629;SDS011;17386;43.846;25.950;2023-02-01T05:08:11;8.10;;;4.43;;
20629;SDS011;17386;43.846;25.950;2023-02-01T05:10:38;9.77;;;4.43;;
20629;SDS011;17386;43.846;25.950;2023-02-01T05:13:05;9.35;;;4.90;;
20629;SDS011;17386;43.846;25.950;2023-02-01T05:15:52;9.93;;;5.35;;
20629;SDS011;17386;43.846;25.950;2023-02-01T05:18:19;10.07;;;4.53;;
20629;SDS011;17386;43.846;25.950;2023-02-01T05:20:45;13.00;;;4.70;;
20629;SDS011;17386;43.846;25.950;2023-02-01T05:23:12;9.27;;;4.85;;
20629;SDS011;17386;43.846;25.950;2023-02-01T05:25:37;10.52;;;4.82;;
20629;SDS011;17386;43.846;25.950;2023-02-01T05:28:03;7.78;;;4.47;;
20629;SDS011;17386;43.846;25.950;2023-02-01T05:30:29;12.07;;;5.18;;
20629;SDS011;17386;43.846;25.950;2023-02-01T05:32:55;13.38;;;5.50;;
20629;SDS011;17386;43.846;25.950;2023-02-01T05:35:20;8.80;;;5.57;;
20629;SDS011;17386;43.846;25.950;2023-02-01T05:37:47;13.68;;;4.57;;
20629;SDS011;17386;43.846;25.950;2023-02-01T05:40:14;10.15;;;5.15;;
20629;SDS011;17386;43.846;25.950;2023-02-01T05:42:41;11.85;;;5.03;;
20629;SDS011;17386;43.846;25.950;2023-02-01T05:45:07;12.73;;;5.00;;
20629;SDS011;17386;43.846;25.950;2023-02-01T05:47:35;12.43;;;5.82;;
20629;SDS011;17386;43.846;25.950;2023-02-01T05:50:00;9.40;;;5.32;;
20629;SDS011;17386;43.846;25.950;2023-02-01T05:52:27;13.23;;;5.53;;
20629;SDS011;17386;43.846;25.950;2023-02-01T05:54:53;12.10;;;5.28;;
20629;SDS011;17386;43.846;25.950;2023-02-01T05:57:20;12.10;;;5.28;;
20629;SDS011;17386;43.846;25.950;2023-02-01T05:59:47;10.70;;;5.65;;
20629;SDS011;17386;43.846;25.950;2023-02-01T06:02:15;13.05;;;5.45;;
20629;SDS011;17386;43.846;25.950;2023-02-01T06:04:42;10.45;;;5.57;;
20629;SDS011;17386;43.846;25.950;2023-02-01T06:07:09;15.32;;;6.53;;
20629;SDS011;17386;43.846;25.950;2023-02-01T06:09:36;11.27;;;5.88;;
20629;SDS011;17386;43.846;25.950;2023-02-01T06:12:04;11.85;;;5.72;;
20629;SDS011;17386;43.846;25.950;2023-02-01T06:14:31;12.73;;;5.75;;
20629;SDS011;17386;43.846;25.950;2023-02-01T06:16:57;12.73;;;5.57;;
20629;SDS011;17386;43.846;25.950;2023-02-01T06:19:24;15.75;;;6.00;;
20629;SDS011;17386;43.846;25.950;2023-02-01T06:21:51;12.90;;;6.03;;
20629;SDS011;17386;43.846;25.950;2023-02-01T06:24:18;11.23;;;5.45;;
20629;SDS011;17386;43.846;25.950;2023-02-01T06:26:44;11.40;;;5.38;;
20629;SDS011;17386;43.846;25.950;2023-02-01T06:29:11;12.52;;;5.43;;
20629;SDS011;17386;43.846;25.950;2023-02-01T06:31:38;13.15;;;5.57;;
20629;SDS011;17386;43.846;25.950;2023-02-01T06:34:06;14.35;;;6.53;;
20629;SDS011;17386;43.846;25.950;2023-02-01T06:36:33;11.30;;;5.45;;
20629;SDS011;17386;43.846;25.950;2023-02-01T06:38:58;12.18;;;5.68;;
20629;SDS011;17386;43.846;25.950;2023-02-01T06:41:26;10.85;;;4.97;;
20629;SDS011;17386;43.846;25.950;2023-02-01T06:43:53;11.23;;;5.75;;
20629;SDS011;17386;43.846;25.950;2023-02-01T06:46:19;13.32;;;6.03;;
20629;SDS011;17386;43.846;25.950;2023-02-01T06:48:46;11.85;;;6.20;;
20629;SDS011;17386;43.846;25.950;2023-02-01T06:51:27;13.65;;;5.88;;
20629;SDS011;17386;43.846;25.950;2023-02-01T06:53:55;10.80;;;5.43;;
20629;SDS011;17386;43.846;25.950;2023-02-01T06:56:22;11.60;;;5.93;;
20629;SDS011;17386;43.846;25.950;2023-02-01T06:58:48;12.77;;;6.15;;
20629;SDS011;17386;43.846;25.950;2023-02-01T07:01:13;12.38;;;6.15;;
20629;SDS011;17386;43.846;25.950;2023-02-01T07:03:39;11.07;;;5.47;;
20629;SDS011;17386;43.846;25.950;2023-02-01T07:06:07;13.93;;;6.38;;
20629;SDS011;17386;43.846;25.950;2023-02-01T07:08:35;10.93;;;5.80;;
20629;SDS011;17386;43.846;25.950;2023-02-01T07:11:07;10.90;;;5.72;;
20629;SDS011;17386;43.846;25.950;2023-02-01T07:13:35;10.30;;;5.35;;
20629;SDS011;17386;43.846;25.950;2023-02-01T07:16:03;13.48;;;6.93;;
20629;SDS011;17386;43.846;25.950;2023-02-01T07:18:31;14.32;;;6.95;;
20629;SDS011;17386;43.846;25.950;2023-02-01T07:20:58;14.18;;;6.60;;
20629;SDS011;17386;43.846;25.950;2023-02-01T07:23:25;15.73;;;6.60;;
20629;SDS011;17386;43.846;25.950;2023-02-01T07:25:56;10.95;;;6.78;;
20629;SDS011;17386;43.846;25.950;2023-02-01T07:28:24;15.85;;;6.97;;
20629;SDS011;17386;43.846;25.950;2023-02-01T07:30:51;14.15;;;7.55;;
20629;SDS011;17386;43.846;25.950;2023-02-01T07:33:19;19.90;;;9.38;;
20629;SDS011;17386;43.846;25.950;2023-02-01T07:35:48;12.95;;;8.05;;
20629;SDS011;17386;43.846;25.950;2023-02-01T07:38:17;15.50;;;7.43;;
20629;SDS011;17386;43.846;25.950;2023-02-01T07:40:44;16.65;;;7.25;;
20629;SDS011;17386;43.846;25.950;2023-02-01T07:43:10;16.42;;;6.82;;
20629;SDS011;17386;43.846;25.950;2023-02-01T07:45:37;15.88;;;7.55;;
20629;SDS011;17386;43.846;25.950;2023-02-01T07:48:04;12.52;;;6.72;;
20629;SDS011;17386;43.846;25.950;2023-02-01T07:50:30;14.15;;;7.28;;
20629;SDS011;17386;43.846;25.950;2023-02-01T07:53:00;13.45;;;6.75;;
20629;SDS011;17386;43.846;25.950;2023-02-01T07:55:27;14.50;;;6.30;;
20629;SDS011;17386;43.846;25.950;2023-02-01T07:57:57;13.63;;;6.03;;
20629;SDS011;17386;43.846;25.950;2023-02-01T08:00:23;12.35;;;6.22;;
20629;SDS011;17386;43.846;25.950;2023-02-01T08:03:07;11.73;;;5.63;;
20629;SDS011;17386;43.846;25.950;2023-02-01T08:05:34;9.80;;;5.35;;
20629;SDS011;17386;43.846;25.950;2023-02-01T08:08:03;12.32;;;5.88;;
20629;SDS011;17386;43.846;25.950;2023-02-01T08:10:28;14.35;;;5.97;;
20629;SDS011;17386;43.846;25.950;2023-02-01T08:12:59;11.13;;;5.65;;
20629;SDS011;17386;43.846;25.950;2023-02-01T08:15:26;12.63;;;5.82;;
20629;SDS011;17386;43.846;25.950;2023-02-01T08:20:19;11.15;;;5.45;;
20629;SDS011;17386;43.846;25.950;2023-02-01T08:22:49;11.55;;;5.35;;
20629;SDS011;17386;43.846;25.950;2023-02-01T08:25:17;10.63;;;5.38;;
20629;SDS011;17386;43.846;25.950;2023-02-01T08:27:43;13.43;;;5.60;;
20629;SDS011;17386;43.846;25.950;2023-02-01T08:30:09;13.57;;;5.50;;
20629;SDS011;17386;43.846;25.950;2023-02-01T08:32:37;11.45;;;5.53;;
20629;SDS011;17386;43.846;25.950;2023-02-01T08:35:04;12.63;;;6.63;;
20629;SDS011;17386;43.846;25.950;2023-02-01T08:37:31;13.25;;;6.05;;
20629;SDS011;17386;43.846;25.950;2023-02-01T08:39:58;9.50;;;5.65;;
20629;SDS011;17386;43.846;25.950;2023-02-01T08:42:25;12.75;;;6.13;;
20629;SDS011;17386;43.846;25.950;2023-02-01T08:45:09;9.10;;;5.13;;
20629;SDS011;17386;43.846;25.950;2023-02-01T08:47:37;9.70;;;5.32;;
20629;SDS011;17386;43.846;25.950;2023-02-01T08:50:04;11.23;;;5.72;;
20629;SDS011;17386;43.846;25.950;2023-02-01T08:52:32;11.07;;;5.32;;
20629;SDS011;17386;43.846;25.950;2023-02-01T08:54:59;10.00;;;4.72;;
20629;SDS011;17386;43.846;25.950;2023-02-01T08:57:24;11.32;;;5.85;;
20629;SDS011;17386;43.846;25.950;2023-02-01T08:59:56;9.85;;;5.82;;
20629;SDS011;17386;43.846;25.950;2023-02-01T09:02:22;12.38;;;6.13;;
20629;SDS011;17386;43.846;25.950;2023-02-01T09:04:49;14.63;;;5.72;;
20629;SDS011;17386;43.846;25.950;2023-02-01T09:07:16;11.15;;;5.70;;
20629;SDS011;17386;43.846;25.950;2023-02-01T09:09:44;12.85;;;5.57;;
20629;SDS011;17386;43.846;25.950;2023-02-01T09:12:11;9.38;;;5.40;;
20629;SDS011;17386;43.846;25.950;2023-02-01T09:14:38;11.45;;;5.85;;
20629;SDS011;17386;43.846;25.950;2023-02-01T09:17:05;10.48;;;5.07;;
20629;SDS011;17386;43.846;25.950;2023-02-01T09:19:31;12.82;;;5.65;;
20629;SDS011;17386;43.846;25.950;2023-02-01T09:21:58;9.82;;;5.38;;
20629;SDS011;17386;43.846;25.950;2023-02-01T09:24:26;12.35;;;5.15;;
20629;SDS011;17386;43.846;25.950;2023-02-01T09:26:53;9.77;;;5.35;;
20629;SDS011;17386;43.846;25.950;2023-02-01T09:29:20;9.93;;;4.57;;
20629;SDS011;17386;43.846;25.950;2023-02-01T09:31:46;8.07;;;4.90;;
20629;SDS011;17386;43.846;25.950;2023-02-01T09:34:13;11.38;;;5.30;;
20629;SDS011;17386;43.846;25.950;2023-02-01T09:36:40;10.35;;;4.70;;
20629;SDS011;17386;43.846;25.950;2023-02-01T09:39:09;8.57;;;4.70;;
20629;SDS011;17386;43.846;25.950;2023-02-01T09:47:12;9.73;;;4.55;;
20629;SDS011;17386;43.846;25.950;2023-02-01T09:50:03;9.85;;;4.90;;
20629;SDS011;17386;43.846;25.950;2023-02-01T09:55:37;10.70;;;4.97;;
20629;SDS011;17386;43.846;25.950;2023-02-01T09:58:14;9.40;;;4.53;;
20629;SDS011;17386;43.846;25.950;2023-02-01T10:00:56;8.43;;;4.30;;
20629;SDS011;17386;43.846;25.950;2023-02-01T10:03:24;10.32;;;5.28;;
20629;SDS011;17386;43.846;25.950;2023-02-01T10:26:44;9.15;;;4.93;;
20629;SDS011;17386;43.846;25.950;2023-02-01T10:29:16;9.20;;;5.20;;
20629;SDS011;17386;43.846;25.950;2023-02-01T10:31:45;9.98;;;3.95;;
20629;SDS011;17386;43.846;25.950;2023-02-01T10:34:21;11.30;;;4.38;;
20629;SDS011;17386;43.846;25.950;2023-02-01T10:42:44;8.02;;;4.20;;
20629;SDS011;17386;43.846;25.950;2023-02-01T10:45:22;8.57;;;3.83;;
20629;SDS011;17386;43.846;25.950;2023-02-01T10:47:51;8.05;;;4.28;;
20629;SDS011;17386;43.846;25.950;2023-02-01T10:50:22;8.00;;;4.40;;
20629;SDS011;17386;43.846;25.950;2023-02-01T10:55:49;9.10;;;4.38;;
20629;SDS011;17386;43.846;25.950;2023-02-01T10:58:31;10.63;;;3.97;;
20629;SDS011;17386;43.846;25.950;2023-02-01T11:00:58;8.85;;;4.07;;
20629;SDS011;17386;43.846;25.950;2023-02-01T11:06:37;11.52;;;4.25;;
20629;SDS011;17386;43.846;25.950;2023-02-01T11:09:21;9.18;;;3.90;;
20629;SDS011;17386;43.846;25.950;2023-02-01T11:19:36;7.13;;;3.85;;
20629;SDS011;17386;43.846;25.950;2023-02-01T11:22:03;4.93;;;3.08;;
20629;SDS011;17386;43.846;25.950;2023-02-01T11:24:34;7.75;;;4.00;;
20629;SDS011;17386;43.846;25.950;2023-02-01T11:27:03;8.90;;;4.30;;
20629;SDS011;17386;43.846;25.950;2023-02-01T11:29:39;7.53;;;4.00;;
20629;SDS011;17386;43.846;25.950;2023-02-01T11:32:09;8.18;;;4.05;;
20629;SDS011;17386;43.846;25.950;2023-02-01T11:34:43;6.47;;;3.78;;
20629;SDS011;17386;43.846;25.950;2023-02-01T11:37:53;7.43;;;4.07;;
20629;SDS011;17386;43.846;25.950;2023-02-01T11:40:27;7.00;;;4.88;;
20629;SDS011;17386;43.846;25.950;2023-02-01T11:42:58;8.48;;;3.80;;
20629;SDS011;17386;43.846;25.950;2023-02-01T11:45:29;9.80;;;4.35;;
20629;SDS011;17386;43.846;25.950;2023-02-01T11:47:57;12.23;;;3.92;;
20629;SDS011;17386;43.846;25.950;2023-02-01T11:50:32;8.73;;;3.85;;
20629;SDS011;17386;43.846;25.950;2023-02-01T12:01:13;10.40;;;3.25;;
20629;SDS011;17386;43.846;25.950;2023-02-01T12:14:56;6.05;;;3.35;;
20629;SDS011;17386;43.846;25.950;2023-02-01T12:39:40;10.27;;;3.22;;
20629;SDS011;17386;43.846;25.950;2023-02-01T12:42:16;7.03;;;2.92;;
20629;SDS011;17386;43.846;25.950;2023-02-01T12:44:45;5.35;;;3.08;;
20629;SDS011;17386;43.846;25.950;2023-02-01T12:47:23;7.70;;;3.00;;
20629;SDS011;17386;43.846;25.950;2023-02-01T12:52:38;6.22;;;3.25;;
20629;SDS011;17386;43.846;25.950;2023-02-01T12:57:41;7.45;;;3.40;;
20629;SDS011;17386;43.846;25.950;2023-02-01T13:05:31;5.95;;;3.17;;
20629;SDS011;17386;43.846;25.950;2023-02-01T13:08:10;7.47;;;3.00;;
20629;SDS011;17386;43.846;25.950;2023-02-01T13:15:48;6.82;;;2.50;;
20629;SDS011;17386;43.846;25.950;2023-02-01T13:18:21;4.57;;;2.60;;
20629;SDS011;17386;43.846;25.950;2023-02-01T13:21:04;6.10;;;2.75;;
20629;SDS011;17386;43.846;25.950;2023-02-01T13:23:34;8.65;;;2.92;;
20629;SDS011;17386;43.846;25.950;2023-02-01T13:26:02;4.00;;;2.10;;
20629;SDS011;17386;43.846;25.950;2023-02-01T13:28:29;7.40;;;2.70;;
20629;SDS011;17386;43.846;25.950;2023-02-01T13:33:52;5.20;;;2.25;;
20629;SDS011;17386;43.846;25.950;2023-02-01T13:42:27;4.47;;;2.15;;
20629;SDS011;17386;43.846;25.950;2023-02-01T13:44:57;6.38;;;1.90;;
20629;SDS011;17386;43.846;25.950;2023-02-01T13:47:38;7.53;;;2.40;;
20629;SDS011;17386;43.846;25.950;2023-02-01T13:53:19;6.28;;;2.45;;
20629;SDS011;17386;43.846;25.950;2023-02-01T13:56:01;3.88;;;2.38;;
20629;SDS011;17386;43.846;25.950;2023-02-01T13:58:36;3.55;;;1.67;;
20629;SDS011;17386;43.846;25.950;2023-02-01T14:01:47;5.70;;;1.98;;
20629;SDS011;17386;43.846;25.950;2023-02-01T14:03:59;7.00;;;2.45;;
20629;SDS011;17386;43.846;25.950;2023-02-01T14:19:29;4.43;;;1.60;;
20629;SDS011;17386;43.846;25.950;2023-02-01T14:21:59;4.38;;;2.03;;
20629;SDS011;17386;43.846;25.950;2023-02-01T14:24:27;5.25;;;1.58;;
20629;SDS011;17386;43.846;25.950;2023-02-01T14:26:59;5.53;;;1.70;;
20629;SDS011;17386;43.846;25.950;2023-02-01T14:29:36;5.43;;;2.05;;
20629;SDS011;17386;43.846;25.950;2023-02-01T14:32:19;4.13;;;1.92;;
20629;SDS011;17386;43.846;25.950;2023-02-01T14:37:23;3.28;;;1.50;;
20629;SDS011;17386;43.846;25.950;2023-02-01T14:42:49;3.83;;;1.80;;
20629;SDS011;17386;43.846;25.950;2023-02-01T14:50:40;4.05;;;2.22;;
20629;SDS011;17386;43.846;25.950;2023-02-01T15:01:13;5.40;;;2.22;;
20629;SDS011;17386;43.846;25.950;2023-02-01T15:06:27;4.80;;;2.17;;
20629;SDS011;17386;43.846;25.950;2023-02-01T15:08:55;5.07;;;2.22;;
20629;SDS011;17386;43.846;25.950;2023-02-01T15:11:25;6.40;;;2.17;;
20629;SDS011;17386;43.846;25.950;2023-02-01T15:13:52;5.03;;;2.45;;
20629;SDS011;17386;43.846;25.950;2023-02-01T15:16:22;6.78;;;2.30;;
20629;SDS011;17386;43.846;25.950;2023-02-01T15:18:58;8.30;;;2.45;;
20629;SDS011;17386;43.846;25.950;2023-02-01T15:21:41;7.72;;;2.53;;
20629;SDS011;17386;43.846;25.950;2023-02-01T15:24:14;5.43;;;2.22;;
20629;SDS011;17386;43.846;25.950;2023-02-01T15:26:51;5.25;;;2.20;;
20629;SDS011;17386;43.846;25.950;2023-02-01T15:29:18;4.25;;;2.13;;
20629;SDS011;17386;43.846;25.950;2023-02-01T15:31:48;6.07;;;2.17;;
20629;SDS011;17386;43.846;25.950;2023-02-01T15:34:15;6.30;;;2.50;;
20629;SDS011;17386;43.846;25.950;2023-02-01T15:36:44;6.53;;;2.00;;
20629;SDS011;17386;43.846;25.950;2023-02-01T15:39:21;5.57;;;2.25;;
20629;SDS011;17386;43.846;25.950;2023-02-01T15:41:59;5.63;;;2.33;;
20629;SDS011;17386;43.846;25.950;2023-02-01T15:44:34;4.35;;;2.28;;
20629;SDS011;17386;43.846;25.950;2023-02-01T15:49:43;3.53;;;2.50;;
20629;SDS011;17386;43.846;25.950;2023-02-01T15:52:17;4.93;;;2.58;;
20629;SDS011;17386;43.846;25.950;2023-02-01T15:54:54;7.75;;;2.10;;
20629;SDS011;17386;43.846;25.950;2023-02-01T15:57:25;6.40;;;2.47;;
20629;SDS011;17386;43.846;25.950;2023-02-01T16:00:04;5.03;;;2.97;;
20629;SDS011;17386;43.846;25.950;2023-02-01T16:02:41;6.13;;;2.90;;
20629;SDS011;17386;43.846;25.950;2023-02-01T16:08:16;8.27;;;3.22;;
20629;SDS011;17386;43.846;25.950;2023-02-01T16:10:49;9.18;;;3.08;;
20629;SDS011;17386;43.846;25.950;2023-02-01T16:13:20;11.02;;;3.80;;
20629;SDS011;17386;43.846;25.950;2023-02-01T16:15:47;6.45;;;3.55;;
20629;SDS011;17386;43.846;25.950;2023-02-01T16:18:13;6.88;;;3.35;;
20629;SDS011;17386;43.846;25.950;2023-02-01T16:20:41;7.38;;;3.50;;
20629;SDS011;17386;43.846;25.950;2023-02-01T16:25:37;8.20;;;3.58;;
20629;SDS011;17386;43.846;25.950;2023-02-01T16:28:03;10.18;;;3.92;;
20629;SDS011;17386;43.846;25.950;2023-02-01T16:30:31;11.65;;;4.57;;
20629;SDS011;17386;43.846;25.950;2023-02-01T16:32:59;7.22;;;3.28;;
20629;SDS011;17386;43.846;25.950;2023-02-01T16:35:34;8.68;;;3.67;;
20629;SDS011;17386;43.846;25.950;2023-02-01T16:38:03;7.03;;;3.30;;
20629;SDS011;17386;43.846;25.950;2023-02-01T16:40:34;6.75;;;3.15;;
20629;SDS011;17386;43.846;25.950;2023-02-01T16:43:01;8.07;;;3.92;;
20629;SDS011;17386;43.846;25.950;2023-02-01T16:45:27;6.85;;;3.42;;
20629;SDS011;17386;43.846;25.950;2023-02-01T16:47:54;8.93;;;3.58;;
20629;SDS011;17386;43.846;25.950;2023-02-01T16:50:22;7.35;;;4.00;;
20629;SDS011;17386;43.846;25.950;2023-02-01T16:52:51;9.50;;;4.10;;
20629;SDS011;17386;43.846;25.950;2023-02-01T16:55:17;10.32;;;4.45;;
20629;SDS011;17386;43.846;25.950;2023-02-01T16:57:47;12.35;;;4.72;;
20629;SDS011;17386;43.846;25.950;2023-02-01T17:00:14;11.32;;;4.55;;
20629;SDS011;17386;43.846;25.950;2023-02-01T17:02:46;10.40;;;4.63;;
20629;SDS011;17386;43.846;25.950;2023-02-01T17:05:12;8.40;;;3.65;;
20629;SDS011;17386;43.846;25.950;2023-02-01T17:07:38;8.55;;;4.70;;
20629;SDS011;17386;43.846;25.950;2023-02-01T17:10:10;12.30;;;4.53;;
20629;SDS011;17386;43.846;25.950;2023-02-01T17:12:48;8.90;;;3.97;;
20629;SDS011;17386;43.846;25.950;2023-02-01T17:15:14;9.82;;;4.60;;
20629;SDS011;17386;43.846;25.950;2023-02-01T17:17:41;8.98;;;4.30;;
20629;SDS011;17386;43.846;25.950;2023-02-01T17:20:17;10.70;;;5.38;;
20629;SDS011;17386;43.846;25.950;2023-02-01T17:22:47;13.57;;;5.13;;
20629;SDS011;17386;43.846;25.950;2023-02-01T17:25:18;8.32;;;4.45;;
20629;SDS011;17386;43.846;25.950;2023-02-01T17:27:47;8.00;;;3.55;;
20629;SDS011;17386;43.846;25.950;2023-02-01T17:30:14;11.52;;;4.90;;
20629;SDS011;17386;43.846;25.950;2023-02-01T17:32:41;14.32;;;4.88;;
20629;SDS011;17386;43.846;25.950;2023-02-01T17:35:17;7.38;;;4.38;;
20629;SDS011;17386;43.846;25.950;2023-02-01T17:37:46;10.18;;;4.72;;
20629;SDS011;17386;43.846;25.950;2023-02-01T17:40:14;9.85;;;4.82;;
20629;SDS011;17386;43.846;25.950;2023-02-01T17:42:41;11.13;;;4.70;;
20629;SDS011;17386;43.846;25.950;2023-02-01T17:47:51;10.88;;;4.47;;
20629;SDS011;17386;43.846;25.950;2023-02-01T17:50:18;10.70;;;4.93;;
20629;SDS011;17386;43.846;25.950;2023-02-01T17:52:45;15.75;;;5.32;;
20629;SDS011;17386;43.846;25.950;2023-02-01T17:55:15;10.48;;;4.63;;
20629;SDS011;17386;43.846;25.950;2023-02-01T17:57:44;8.68;;;4.43;;
20629;SDS011;17386;43.846;25.950;2023-02-01T18:00:11;14.30;;;6.22;;
20629;SDS011;17386;43.846;25.950;2023-02-01T18:02:37;14.65;;;7.57;;
20629;SDS011;17386;43.846;25.950;2023-02-01T18:05:12;13.45;;;6.22;;
20629;SDS011;17386;43.846;25.950;2023-02-01T18:10:05;7.77;;;4.20;;
20629;SDS011;17386;43.846;25.950;2023-02-01T18:12:32;10.98;;;5.40;;
20629;SDS011;17386;43.846;25.950;2023-02-01T18:14:59;10.18;;;5.03;;
20629;SDS011;17386;43.846;25.950;2023-02-01T18:17:26;11.25;;;5.18;;